Time,TemperatureF,DewpointF,PressureIn,WindDirection,WindDirectionDegrees,WindSpeedMPH,WindSpeedGustMPH,Humidity,HourlyPrecipIn,Conditions,Clouds,dailyrainin,SoftwareType,DateUTC
2013-04-08 00:05:00,49.4,38.0,30.05,SW,232,6.0,-999.0,64,-99.99,,,0.00,weatherlink.com 1.10,2013-04-08 04:05:00,
2013-04-08 00:20:00,49.2,37.0,30.05,SW,223,6.0,-999.0,64,-99.99,,,0.00,weatherlink.com 1.10,2013-04-08 04:20:00,
2013-04-08 00:35:00,49.2,38.0,30.05,SW,223,5.0,-999.0,65,-99.99,,,0.00,weatherlink.com 1.10,2013-04-08 04:35:00,
2013-04-08 00:50:00,48.9,38.0,30.05,SSW,211,7.0,-999.0,65,-99.99,,,0.00,weatherlink.com 1.10,2013-04-08 04:50:00,
2013-04-08 01:05:00,48.8,38.0,30.05,WSW,240,6.0,-999.0,66,-99.99,,,0.00,weatherlink.com 1.10,2013-04-08 05:05:00,
2013-04-08 01:20:00,48.7,38.0,30.05,SW,225,8.0,-999.0,66,-99.99,,,0.00,weatherlink.com 1.10,2013-04-08 05:20:00,
2013-04-08 01:36:00,48.2,37.0,30.05,WSW,241,2.0,-999.0,66,-99.99,,,0.00,weatherlink.com 1.10,2013-04-08 05:36:00,
2013-04-08 01:51:00,48.1,37.0,30.05,West,265,9.0,-999.0,65,-99.99,,,0.00,weatherlink.com 1.10,2013-04-08 05:51:00,
2013-04-08 02:06:00,48.5,36.0,30.05,SW,231,12.0,-999.0,63,-99.99,,,0.00,weatherlink.com 1.10,2013-04-08 06:06:00,
2013-04-08 02:21:00,48.3,36.0,30.05,SW,235,7.0,-999.0,63,-99.99,,,0.00,weatherlink.com 1.10,2013-04-08 06:21:00,
2013-04-08 02:36:00,47.6,36.0,30.05,WSW,256,8.0,-999.0,64,-99.99,,,0.00,weatherlink.com 1.10,2013-04-08 06:36:00,
2013-04-08 02:51:00,47.8,36.0,30.05,West,260,6.0,-999.0,63,-99.99,,,0.00,weatherlink.com 1.10,2013-04-08 06:51:00,
2013-04-08 03:21:00,48.0,35.0,30.04,WSW,240,7.0,-999.0,61,-99.99,,,0.00,weatherlink.com 1.10,2013-04-08 07:21:00,
2013-04-08 03:51:00,47.8,34.0,30.03,SW,223,6.0,-999.0,60,-99.99,,,0.00,weatherlink.com 1.10,2013-04-08 07:51:00,
2013-04-08 04:51:00,47.0,35.0,30.04,WSW,249,6.0,-999.0,63,-99.99,,,0.00,weatherlink.com 1.10,2013-04-08 08:51:00,
2013-04-08 05:06:00,47.4,35.0,30.03,WSW,242,6.0,-999.0,63,-99.99,,,0.00,weatherlink.com 1.10,2013-04-08 09:06:00,
2013-04-08 05:36:00,47.2,35.0,30.03,SW,219,7.0,-999.0,64,-99.99,,,0.00,weatherlink.com 1.10,2013-04-08 09:36:00,
2013-04-08 06:06:00,47.2,36.0,30.03,WSW,252,8.0,-999.0,65,-99.99,,,0.00,weatherlink.com 1.10,2013-04-08 10:06:00,
2013-04-08 06:21:00,47.4,36.0,30.03,SW,216,7.0,-999.0,66,-99.99,,,0.00,weatherlink.com 1.10,2013-04-08 10:21:00,
2013-04-08 06:36:00,47.2,37.0,30.04,WSW,239,9.0,-999.0,67,-99.99,,,0.00,weatherlink.com 1.10,2013-04-08 10:36:00,
2013-04-08 06:51:00,47.0,36.0,30.04,WSW,248,8.0,-999.0,67,-99.99,,,0.00,weatherlink.com 1.10,2013-04-08 10:51:00,
2013-04-08 07:06:00,46.9,37.0,30.04,SW,223,4.0,-999.0,68,-99.99,,,0.00,weatherlink.com 1.10,2013-04-08 11:06:00,
2013-04-08 07:21:00,47.3,37.0,30.05,WSW,242,8.0,-999.0,68,-99.99,,,0.00,weatherlink.com 1.10,2013-04-08 11:21:00,
2013-04-08 07:36:00,47.5,37.0,30.05,SSW,209,7.0,-999.0,68,-99.99,,,0.00,weatherlink.com 1.10,2013-04-08 11:36:00,
2013-04-08 07:51:00,48.2,38.0,30.06,SW,227,8.0,-999.0,68,-99.99,,,0.00,weatherlink.com 1.10,2013-04-08 11:51:00,
2013-04-08 08:06:00,48.7,39.0,30.06,WSW,238,8.0,-999.0,68,-99.99,,,0.00,weatherlink.com 1.10,2013-04-08 12:06:00,
2013-04-08 08:21:00,49.1,39.0,30.06,WSW,239,8.0,-999.0,69,-99.99,,,0.00,weatherlink.com 1.10,2013-04-08 12:21:00,
2013-04-08 08:36:00,49.6,39.0,30.06,SW,219,5.0,-999.0,68,-99.99,,,0.00,weatherlink.com 1.10,2013-04-08 12:36:00,
2013-04-08 08:51:00,50.0,40.0,30.06,SSW,209,10.0,-999.0,68,-99.99,,,0.00,weatherlink.com 1.10,2013-04-08 12:51:00,
2013-04-08 09:06:00,49.9,40.0,30.06,SW,220,4.0,-999.0,68,-99.99,,,0.00,weatherlink.com 1.10,2013-04-08 13:06:00,
2013-04-08 09:21:00,50.6,40.0,30.06,WSW,244,7.0,-999.0,67,-99.99,,,0.00,weatherlink.com 1.10,2013-04-08 13:21:00,
2013-04-08 09:36:00,52.6,41.0,30.05,SW,221,8.0,-999.0,64,-99.99,,,0.00,weatherlink.com 1.10,2013-04-08 13:36:00,
2013-04-08 09:51:00,52.7,41.0,30.05,SSW,213,8.0,-999.0,64,-99.99,,,0.00,weatherlink.com 1.10,2013-04-08 13:51:00,
2013-04-08 10:06:00,53.1,42.0,30.05,WSW,249,12.0,-999.0,65,-99.99,,,0.00,weatherlink.com 1.10,2013-04-08 14:06:00,
2013-04-08 10:21:00,53.9,42.0,30.05,WSW,248,12.0,-999.0,65,-99.99,,,0.00,weatherlink.com 1.10,2013-04-08 14:21:00,
2013-04-08 10:36:00,54.1,43.0,30.05,SW,232,11.0,-999.0,66,-99.99,,,0.00,weatherlink.com 1.10,2013-04-08 14:36:00,
2013-04-08 10:51:00,53.9,43.0,30.04,SSW,211,6.0,-999.0,68,-99.99,,,0.00,weatherlink.com 1.10,2013-04-08 14:51:00,
2013-04-08 11:21:00,55.4,43.0,30.04,WSW,238,11.0,-999.0,63,-99.99,,,0.00,weatherlink.com 1.10,2013-04-08 15:21:00,
2013-04-08 11:37:00,58.1,43.0,30.04,SW,234,4.0,-999.0,57,-99.99,,,0.00,weatherlink.com 1.10,2013-04-08 15:37:00,
2013-04-08 11:52:00,57.9,41.0,30.04,WSW,238,12.0,-999.0,54,-99.99,,,0.00,weatherlink.com 1.10,2013-04-08 15:52:00,
2013-04-08 12:07:00,57.3,40.0,30.03,SW,225,12.0,-999.0,52,-99.99,,,0.00,weatherlink.com 1.10,2013-04-08 16:07:00,
2013-04-08 12:22:00,57.8,41.0,30.03,SW,229,8.0,-999.0,54,-99.99,,,0.00,weatherlink.com 1.10,2013-04-08 16:22:00,
2013-04-08 12:37:00,58.1,43.0,30.03,SW,214,11.0,-999.0,57,-99.99,,,0.00,weatherlink.com 1.10,2013-04-08 16:37:00,
2013-04-08 12:52:00,58.6,43.0,30.03,SW,229,5.0,-999.0,56,-99.99,,,0.00,weatherlink.com 1.10,2013-04-08 16:52:00,
2013-04-08 13:07:00,59.3,42.0,30.02,SW,224,4.0,-999.0,53,-99.99,,,0.00,weatherlink.com 1.10,2013-04-08 17:07:00,
2013-04-08 13:22:00,59.9,42.0,30.02,West,259,10.0,-999.0,51,-99.99,,,0.00,weatherlink.com 1.10,2013-04-08 17:22:00,
2013-04-08 13:37:00,60.0,42.0,30.02,WSW,254,10.0,-999.0,52,-99.99,,,0.00,weatherlink.com 1.10,2013-04-08 17:37:00,
2013-04-08 13:52:00,59.7,42.0,30.01,WSW,238,9.0,-999.0,53,-99.99,,,0.00,weatherlink.com 1.10,2013-04-08 17:52:00,
2013-04-08 14:07:00,62.4,41.0,30.00,SSW,213,10.0,-999.0,46,-99.99,,,0.00,weatherlink.com 1.10,2013-04-08 18:07:00,
2013-04-08 14:22:00,60.8,41.0,30.00,SSW,212,12.0,-999.0,49,-99.99,,,0.00,weatherlink.com 1.10,2013-04-08 18:22:00,
2013-04-08 14:37:00,61.6,43.0,30.00,SSW,201,9.0,-999.0,50,-99.99,,,0.00,weatherlink.com 1.10,2013-04-08 18:37:00,
2013-04-08 14:52:00,61.8,42.0,29.99,SW,220,7.0,-999.0,49,-99.99,,,0.00,weatherlink.com 1.10,2013-04-08 18:52:00,
2013-04-08 15:07:00,63.7,42.0,29.98,South,178,7.0,-999.0,46,-99.99,,,0.00,weatherlink.com 1.10,2013-04-08 19:07:00,
2013-04-08 15:22:00,62.1,42.0,29.98,SSE,165,6.0,-999.0,48,-99.99,,,0.00,weatherlink.com 1.10,2013-04-08 19:22:00,
2013-04-08 15:37:00,62.5,42.0,29.98,SW,215,6.0,-999.0,47,-99.99,,,0.00,weatherlink.com 1.10,2013-04-08 19:37:00,
2013-04-08 15:52:00,63.3,43.0,29.96,ESE,116,2.0,-999.0,47,-99.99,,,0.00,weatherlink.com 1.10,2013-04-08 19:52:00,
2013-04-08 16:07:00,62.5,42.0,29.96,SW,231,8.0,-999.0,48,-99.99,,,0.00,weatherlink.com 1.10,2013-04-08 20:07:00,
2013-04-08 16:22:00,61.2,41.0,29.96,SW,228,10.0,-999.0,48,-99.99,,,0.00,weatherlink.com 1.10,2013-04-08 20:22:00,
2013-04-08 16:37:00,60.9,42.0,29.96,SSW,212,9.0,-999.0,50,-99.99,,,0.00,weatherlink.com 1.10,2013-04-08 20:37:00,
2013-04-08 16:52:00,59.9,42.0,29.96,SW,227,10.0,-999.0,51,-99.99,,,0.00,weatherlink.com 1.10,2013-04-08 20:52:00,
2013-04-08 17:07:00,59.6,42.0,29.96,South,188,11.0,-999.0,52,-99.99,,,0.00,weatherlink.com 1.10,2013-04-08 21:07:00,
2013-04-08 17:22:00,60.4,42.0,29.96,SSE,166,7.0,-999.0,51,-99.99,,,0.00,weatherlink.com 1.10,2013-04-08 21:22:00,
2013-04-08 17:37:00,60.6,42.0,29.96,South,182,4.0,-999.0,51,-99.99,,,0.00,weatherlink.com 1.10,2013-04-08 21:37:00,
2013-04-08 17:52:00,60.1,42.0,29.96,SSW,198,4.0,-999.0,52,-99.99,,,0.00,weatherlink.com 1.10,2013-04-08 21:52:00,
2013-04-08 18:07:00,59.5,42.0,29.96,SSW,202,10.0,-999.0,53,-99.99,,,0.00,weatherlink.com 1.10,2013-04-08 22:07:00,
2013-04-08 18:22:00,59.4,42.0,29.97,SW,223,6.0,-999.0,53,-99.99,,,0.00,weatherlink.com 1.10,2013-04-08 22:22:00,
2013-04-08 18:37:00,59.1,42.0,29.97,SW,218,9.0,-999.0,53,-99.99,,,0.00,weatherlink.com 1.10,2013-04-08 22:37:00,
2013-04-08 18:52:00,58.9,42.0,29.97,WSW,244,9.0,-999.0,53,-99.99,,,0.00,weatherlink.com 1.10,2013-04-08 22:52:00,
2013-04-08 19:07:00,58.8,42.0,29.98,WSW,238,7.0,-999.0,54,-99.99,,,0.00,weatherlink.com 1.10,2013-04-08 23:07:00,
2013-04-08 19:22:00,58.1,42.0,29.98,SSW,207,11.0,-999.0,55,-99.99,,,0.00,weatherlink.com 1.10,2013-04-08 23:22:00,
2013-04-08 19:37:00,58.1,42.0,29.98,WSW,247,9.0,-999.0,55,-99.99,,,0.00,weatherlink.com 1.10,2013-04-08 23:37:00,
2013-04-08 19:52:00,57.4,42.0,29.98,SW,217,5.0,-999.0,56,-99.99,,,0.00,weatherlink.com 1.10,2013-04-08 23:52:00,
2013-04-08 20:07:00,57.4,42.0,29.99,WSW,243,13.0,-999.0,56,-99.99,,,0.00,weatherlink.com 1.10,2013-04-09 00:07:00,
2013-04-08 20:22:00,57.0,41.0,29.98,SW,225,8.0,-999.0,56,-99.99,,,0.00,weatherlink.com 1.10,2013-04-09 00:22:00,
2013-04-08 20:37:00,56.9,42.0,29.99,WSW,254,12.0,-999.0,57,-99.99,,,0.00,weatherlink.com 1.10,2013-04-09 00:37:00,
2013-04-08 20:52:00,57.0,42.0,29.99,SW,219,15.0,-999.0,57,-99.99,,,0.00,weatherlink.com 1.10,2013-04-09 00:52:00,
2013-04-08 21:07:00,56.6,42.0,29.99,SW,233,13.0,-999.0,59,-99.99,,,0.00,weatherlink.com 1.10,2013-04-09 01:07:00,
2013-04-08 21:22:00,56.6,43.0,29.99,SW,229,14.0,-999.0,60,-99.99,,,0.00,weatherlink.com 1.10,2013-04-09 01:22:00,
2013-04-08 21:37:00,56.0,44.0,30.00,WSW,241,8.0,-999.0,64,-99.99,,,0.00,weatherlink.com 1.10,2013-04-09 01:37:00,
2013-04-08 21:52:00,55.0,44.0,30.00,SW,224,9.0,-999.0,66,-99.99,,,0.00,weatherlink.com 1.10,2013-04-09 01:52:00,
2013-04-08 22:07:00,55.1,44.0,30.00,SW,218,5.0,-999.0,66,-99.99,,,0.00,weatherlink.com 1.10,2013-04-09 02:07:00,
2013-04-08 22:22:00,54.9,44.0,30.00,WSW,252,8.0,-999.0,66,-99.99,,,0.00,weatherlink.com 1.10,2013-04-09 02:22:00,
2013-04-08 22:37:00,54.8,44.0,30.00,SW,232,9.0,-999.0,66,-99.99,,,0.00,weatherlink.com 1.10,2013-04-09 02:37:00,
2013-04-08 22:52:00,54.9,44.0,30.00,WSW,249,9.0,-999.0,66,-99.99,,,0.00,weatherlink.com 1.10,2013-04-09 02:52:00,
2013-04-08 23:07:00,54.9,44.0,30.00,WSW,248,11.0,-999.0,66,-99.99,,,0.00,weatherlink.com 1.10,2013-04-09 03:07:00,
2013-04-08 23:22:00,54.9,44.0,30.00,WSW,244,11.0,-999.0,66,-99.99,,,0.00,weatherlink.com 1.10,2013-04-09 03:22:00,
2013-04-08 23:37:00,54.5,44.0,30.01,SW,215,10.0,-999.0,68,-99.99,,,0.00,weatherlink.com 1.10,2013-04-09 03:37:00,
2013-04-08 23:52:00,54.4,44.0,30.02,SW,229,12.0,-999.0,69,-99.99,,,0.00,weatherlink.com 1.10,2013-04-09 03:52:00,